Detall de PIREP

Printer-friendly versionPDF version

[2012/09/21 16:13:00]
Flight IATA:CT0001
Pilot Number:044
Company ICAO:CAT
Aircraft Type:BE20/A
PAX:4
Departing Airport: LEVC
Destination Airport: LELC
Alternate Airport:LEAL
Online: VATSIM
Route:ALT W810 VSJ
Flight Level:F090
No Slew and time accel
No pause
Crash detect
Detect pilot in Cockpit between each 30 and 45 minutes
16:13 Zero fuel Weight: 8738 Lbs, Fuel Weight: 3622 Lbs
16:13 VATSIM:LEVC 211600Z 08006KT 040V110 9999 FEW025 25/17 Q1015 NOSIG
16:13 VATSIM:LELC 211600Z 03012KT 010V080 9999 FEW018 26/21 Q1014 NOSIG
16:13 VOICE CATALONIAN
16:16 Parking Brakes off
16:25 Take-off
16:25 Take off Weight: 12327 Lbs
16:25 Wind: 092º @ 006 Knots Heading: 115º
16:25 POS N39º 29´ 28´´ W000º 29´ 14´´
16:25 Flaps:1 at 131 Knots
16:25 Gear Up: 133 Knots
16:25 Flaps:0 at 132 Knots
16:32 TOC
16:32 Fuel Weight: 3497 Lb
16:40 Wind:064º@023 Knots Heading: 177º Ground Speed: 238 Knots Altitude 9041 ft
16:48 TOD
16:48 Fuel Weight: 3314 Lb
16:55 Wind:031º@022 Knots Heading: 203º Ground Speed: 207 Knots Altitude 4445 ft
17:06 Gear Down: 149 Knots
17:06 Flaps:1 at 147 Knots
17:06 Flaps:2 at 129 Knots
17:07 TouchDown:Rate -240 ft/min Speed: 108 Knots
17:07 VATSIM:LELC 211600Z 03012KT 010V080 9999 FEW018 26/21 Q1014 NOSIG
17:07 Land
17:07 Wind:072º@012 Knots
17:07 Heading: 043º
17:07 Flight Duration: 00:42
17:07 Landing Weight: 11964 Lbs
17:07 POS N37º 46´ 32´´ W000º 48´ 40´´
17:11 Parking brakes on
17:11 Block to Block Duration: 00:55
17:11 Final Fuel: 3218 Lbls
17:11 Spent Fuel: 403 Lbls
17:11 Flight Length: 138 NM
17:11 TOD Land Length: 55 NM

Exportar CSV

Powered by Drupal - Modified by Danger4k